Terminal Aerodrome Forecast
Issued by NWS Cleveland, OH

Home | Current Version | Previous Version | Graphics & Text | Print | Product List | Glossary On
Versions: 1 2 3 4 5 6 7 8 9 10 11 12 13 14 15 16 17 18
000
FTUS41 KCLE 210900 AAB
TAFTOL
TAF AMD
KTOL 210900Z 2109/2206 34005KT 1/4SM FG OVC001
      TEMPO 2109/2112 1SM BR OVC004
     FM211200 34005KT 2SM BR OVC006
      TEMPO 2112/2113 1/2SM FG VV002
     FM211400 32008KT P6SM SCT008 SCT035
     FM211700 30012KT P6SM SCT035=

USA.gov is the U.S. government's official web portal to all federal, state and local government web resources and services.